Time;durP1;ratioP1;P1;durP2;ratioP2;P2;SDS_P1;SDS_P2;PMS_P1;PMS_P2;Temp;Humidity;BMP_temperature;BMP_pressure;BME280_temperature;BME280_humidity;BME280_pressure;Samples;Min_cycle;Max_cycle;Signal;HPM_P1;HPM_P2
2022/07/18 00:01:41;;;;;;;5.35;4.03;;;;;;;;;;5023280;28;20946;-70
2022/07/18 00:04:06;;;;;;;5.95;4.75;;;;;;;;;;5036646;28;20899;-68
2022/07/18 00:06:31;;;;;;;6.72;4.50;;;;;;;;;;5033819;28;20235;-69
2022/07/18 00:08:56;;;;;;;6.90;4.20;;;;;;;;;;5050333;28;20213;-69
2022/07/18 00:11:22;;;;;;;5.88;4.53;;;;;;;;;;5047767;28;20208;-69
2022/07/18 00:13:47;;;;;;;5.43;4.13;;;;;;;;;;5043654;28;20189;-69
2022/07/18 00:16:12;;;;;;;8.80;5.07;;;;;;;;;;5043088;28;20200;-68
2022/07/18 00:18:37;;;;;;;4.45;4.03;;;;;;;;;;5055039;28;20213;-68
2022/07/18 00:21:03;;;;;;;6.40;4.63;;;;;;;;;;5040754;28;20201;-68
2022/07/18 00:23:28;;;;;;;7.20;5.30;;;;;;;;;;5051789;28;20178;-69
2022/07/18 00:25:53;;;;;;;6.13;4.63;;;;;;;;;;5045653;28;20181;-67
2022/07/18 00:28:18;;;;;;;6.63;4.82;;;;;;;;;;5047946;28;20201;-69
2022/07/18 00:30:43;;;;;;;6.03;5.03;;;;;;;;;;5048732;28;20182;-69
2022/07/18 00:33:09;;;;;;;6.22;3.78;;;;;;;;;;5048255;28;20169;-69
2022/07/18 00:35:34;;;;;;;4.25;3.63;;;;;;;;;;5041274;28;20197;-68
2022/07/18 00:38:01;;;;;;;5.00;3.80;;;;;;;;;;5044599;28;20198;-68
2022/07/18 00:40:26;;;;;;;7.32;3.90;;;;;;;;;;5049574;28;20178;-69
2022/07/18 00:42:51;;;;;;;7.20;4.53;;;;;;;;;;5049049;28;20236;-69
2022/07/18 00:45:17;;;;;;;5.95;4.55;;;;;;;;;;5051219;28;20181;-71
2022/07/18 00:47:42;;;;;;;5.65;4.50;;;;;;;;;;5049408;28;20182;-71
2022/07/18 00:50:07;;;;;;;8.77;4.55;;;;;;;;;;5050185;28;20259;-71
2022/07/18 00:52:33;;;;;;;5.82;4.10;;;;;;;;;;5048156;28;20200;-71
2022/07/18 00:54:59;;;;;;;6.30;4.10;;;;;;;;;;5050850;28;20177;-71
2022/07/18 00:57:24;;;;;;;7.07;4.57;;;;;;;;;;5051291;28;20169;-71
2022/07/18 01:02:33;;;;;;;7.35;4.75;;;;;;;;;;5051469;28;20205;-71
2022/07/18 01:04:58;;;;;;;6.88;4.85;;;;;;;;;;5045598;28;20552;-71
2022/07/18 01:07:24;;;;;;;6.15;5.00;;;;;;;;;;5048216;28;20663;-71
2022/07/18 01:09:49;;;;;;;6.78;5.47;;;;;;;;;;5048049;28;20288;-71
2022/07/18 01:12:14;;;;;;;8.13;5.25;;;;;;;;;;5035278;28;20231;-71
2022/07/18 01:14:40;;;;;;;7.40;4.90;;;;;;;;;;5046077;28;20258;-71
2022/07/18 01:17:11;;;;;;;7.53;5.90;;;;;;;;;;5049009;28;20197;-71
2022/07/18 01:19:36;;;;;;;7.65;5.82;;;;;;;;;;5039702;28;20202;-71
2022/07/18 01:22:02;;;;;;;9.52;5.95;;;;;;;;;;5048760;28;20170;-70
2022/07/18 01:24:27;;;;;;;7.38;5.70;;;;;;;;;;5044231;28;20308;-70
2022/07/18 01:26:52;;;;;;;6.30;5.25;;;;;;;;;;5057165;28;20180;-71
2022/07/18 01:29:17;;;;;;;7.07;5.63;;;;;;;;;;5033482;28;20241;-70
2022/07/18 01:31:42;;;;;;;6.60;5.90;;;;;;;;;;5045214;28;20173;-71
2022/07/18 01:34:08;;;;;;;8.07;5.80;;;;;;;;;;5047422;28;20251;-71
2022/07/18 01:36:33;;;;;;;8.07;6.50;;;;;;;;;;5046640;28;20558;-71
2022/07/18 01:38:58;;;;;;;8.95;6.03;;;;;;;;;;5049217;28;20216;-71
2022/07/18 01:41:23;;;;;;;8.10;6.15;;;;;;;;;;5047265;28;20284;-71
2022/07/18 01:43:48;;;;;;;9.07;5.53;;;;;;;;;;5048005;28;20269;-69
2022/07/18 01:46:14;;;;;;;7.93;5.20;;;;;;;;;;5038976;28;20651;-69
2022/07/18 01:48:39;;;;;;;10.63;5.53;;;;;;;;;;5047086;28;20221;-68
2022/07/18 01:51:05;;;;;;;8.25;5.72;;;;;;;;;;5040486;28;20186;-69
2022/07/18 01:53:30;;;;;;;6.80;5.85;;;;;;;;;;5050418;28;20610;-70
2022/07/18 01:55:55;;;;;;;6.32;5.28;;;;;;;;;;5047909;28;20662;-69
2022/07/18 01:58:20;;;;;;;7.95;4.90;;;;;;;;;;5044889;28;20209;-69
2022/07/18 02:00:46;;;;;;;7.97;4.85;;;;;;;;;;5045458;28;20182;-69
2022/07/18 02:03:11;;;;;;;6.43;5.72;;;;;;;;;;5043591;28;20213;-69
2022/07/18 02:05:36;;;;;;;7.38;5.63;;;;;;;;;;5049565;28;20604;-69
2022/07/18 02:08:01;;;;;;;7.07;5.45;;;;;;;;;;5027497;28;20194;-69
2022/07/18 02:10:27;;;;;;;7.72;5.30;;;;;;;;;;5048671;28;20679;-69
2022/07/18 02:12:52;;;;;;;5.35;4.57;;;;;;;;;;5033988;28;20187;-68
2022/07/18 02:15:17;;;;;;;5.93;4.38;;;;;;;;;;5047741;28;20181;-69
2022/07/18 02:17:43;;;;;;;7.28;5.28;;;;;;;;;;5049132;28;20185;-69
2022/07/18 02:20:10;;;;;;;8.82;4.82;;;;;;;;;;5051817;28;20225;-70
2022/07/18 02:22:36;;;;;;;7.00;5.15;;;;;;;;;;5047702;28;20182;-70
2022/07/18 02:25:01;;;;;;;7.63;5.40;;;;;;;;;;5040241;28;20618;-69
2022/07/18 02:27:27;;;;;;;7.13;5.00;;;;;;;;;;5045736;28;20265;-72
2022/07/18 02:29:52;;;;;;;6.65;5.25;;;;;;;;;;5052124;28;20197;-70
2022/07/18 02:32:17;;;;;;;6.78;4.68;;;;;;;;;;5052162;28;20208;-70
2022/07/18 02:34:43;;;;;;;6.32;5.00;;;;;;;;;;5051866;28;20197;-71
2022/07/18 02:37:08;;;;;;;8.43;5.40;;;;;;;;;;5045115;28;20169;-68
2022/07/18 02:39:33;;;;;;;9.68;6.32;;;;;;;;;;5065562;23;20287;-73
2022/07/18 02:41:59;;;;;;;7.75;5.43;;;;;;;;;;5037454;28;20173;-73
2022/07/18 02:44:24;;;;;;;8.13;5.75;;;;;;;;;;5031910;28;20181;-73
2022/07/18 02:46:50;;;;;;;9.02;6.18;;;;;;;;;;5052362;28;20337;-74
2022/07/18 02:49:27;;;;;;;7.90;5.47;;;;;;;;;;5051940;28;20709;-73
2022/07/18 02:51:53;;;;;;;9.05;5.85;;;;;;;;;;5051237;28;20626;-74
2022/07/18 02:54:18;;;;;;;12.10;6.03;;;;;;;;;;5029990;28;20176;-74
2022/07/18 02:56:43;;;;;;;15.07;7.05;;;;;;;;;;5052966;28;20632;-74
2022/07/18 02:59:09;;;;;;;8.60;6.45;;;;;;;;;;5038034;28;20201;-74
2022/07/18 03:01:34;;;;;;;9.75;6.05;;;;;;;;;;5052512;28;20228;-73
2022/07/18 03:04:00;;;;;;;12.18;6.43;;;;;;;;;;5045349;28;20185;-73
2022/07/18 03:06:25;;;;;;;7.00;4.90;;;;;;;;;;5038550;28;20251;-74
2022/07/18 03:08:50;;;;;;;9.27;5.43;;;;;;;;;;5051649;28;20599;-73
2022/07/18 03:11:16;;;;;;;7.25;5.68;;;;;;;;;;5051128;28;20686;-73
2022/07/18 03:13:41;;;;;;;8.65;5.78;;;;;;;;;;5050324;28;20190;-73
2022/07/18 03:16:06;;;;;;;8.18;5.72;;;;;;;;;;5047589;28;20838;-73
2022/07/18 03:18:31;;;;;;;8.35;5.65;;;;;;;;;;5046755;28;20738;-73
2022/07/18 03:20:56;;;;;;;8.77;5.75;;;;;;;;;;5050222;28;20183;-73
2022/07/18 03:23:22;;;;;;;7.85;5.55;;;;;;;;;;5045757;28;20170;-74
2022/07/18 03:25:47;;;;;;;10.60;5.85;;;;;;;;;;5040569;28;20655;-73
2022/07/18 03:28:12;;;;;;;7.13;5.57;;;;;;;;;;5032668;28;20194;-73
2022/07/18 03:30:37;;;;;;;13.65;6.38;;;;;;;;;;5038054;28;20217;-73
2022/07/18 03:33:02;;;;;;;8.13;6.20;;;;;;;;;;5039096;28;20209;-73
2022/07/18 03:35:28;;;;;;;7.68;5.45;;;;;;;;;;5031826;28;20177;-74
2022/07/18 03:37:53;;;;;;;11.23;5.70;;;;;;;;;;5033490;28;20186;-74
2022/07/18 03:40:18;;;;;;;6.30;5.40;;;;;;;;;;5047232;28;20217;-74
2022/07/18 03:42:43;;;;;;;8.23;5.40;;;;;;;;;;5038098;28;20213;-74
2022/07/18 03:45:08;;;;;;;6.20;5.18;;;;;;;;;;5038161;28;20174;-74
2022/07/18 03:47:34;;;;;;;6.88;5.55;;;;;;;;;;5046373;28;20562;-74
2022/07/18 03:50:00;;;;;;;9.77;6.68;;;;;;;;;;5047927;28;20198;-74
2022/07/18 03:52:25;;;;;;;10.93;6.88;;;;;;;;;;5048826;28;20181;-74
2022/07/18 03:54:50;;;;;;;8.52;5.45;;;;;;;;;;5033585;28;20182;-74
2022/07/18 03:57:15;;;;;;;6.13;4.97;;;;;;;;;;5027627;28;20190;-74
2022/07/18 03:59:40;;;;;;;10.00;6.07;;;;;;;;;;5026185;28;20284;-74
2022/07/18 04:02:06;;;;;;;7.07;5.25;;;;;;;;;;5040423;28;20628;-74
2022/07/18 04:04:31;;;;;;;9.25;5.75;;;;;;;;;;5044710;28;20217;-74
2022/07/18 04:06:59;;;;;;;6.00;5.30;;;;;;;;;;5046163;28;20188;-74
2022/07/18 04:09:24;;;;;;;8.52;5.75;;;;;;;;;;5034004;28;20671;-73
2022/07/18 04:11:49;;;;;;;8.98;5.57;;;;;;;;;;5049270;28;20276;-74
2022/07/18 04:14:14;;;;;;;11.02;5.57;;;;;;;;;;5033836;28;20208;-74
2022/07/18 04:16:39;;;;;;;8.45;5.53;;;;;;;;;;5047534;28;20303;-74
2022/07/18 04:19:05;;;;;;;7.05;5.38;;;;;;;;;;5050458;28;20549;-74
2022/07/18 04:21:30;;;;;;;7.28;5.15;;;;;;;;;;5046313;28;20604;-73
2022/07/18 04:23:55;;;;;;;8.43;5.45;;;;;;;;;;5050679;28;20197;-74
2022/07/18 04:26:20;;;;;;;9.82;6.25;;;;;;;;;;5037408;28;20219;-74
2022/07/18 04:28:45;;;;;;;10.38;5.68;;;;;;;;;;5049362;28;20208;-74
2022/07/18 04:31:11;;;;;;;10.35;6.05;;;;;;;;;;5027792;28;20178;-74
2022/07/18 04:33:36;;;;;;;6.38;5.22;;;;;;;;;;5050484;28;20252;-74
2022/07/18 04:36:01;;;;;;;8.50;5.72;;;;;;;;;;5039817;28;20178;-74
2022/07/18 04:38:26;;;;;;;6.70;5.32;;;;;;;;;;5030735;28;20212;-74
2022/07/18 04:40:52;;;;;;;7.45;5.72;;;;;;;;;;5049603;28;20733;-74
2022/07/18 04:43:17;;;;;;;6.93;5.80;;;;;;;;;;5050138;28;20712;-74
2022/07/18 04:45:42;;;;;;;9.15;5.25;;;;;;;;;;5048715;28;20195;-75
2022/07/18 04:48:07;;;;;;;10.15;6.30;;;;;;;;;;5049502;28;20181;-74
2022/07/18 04:50:32;;;;;;;10.38;5.80;;;;;;;;;;5047662;28;20614;-74
2022/07/18 04:52:58;;;;;;;7.53;6.07;;;;;;;;;;5041812;28;20303;-74
2022/07/18 04:55:24;;;;;;;8.73;5.57;;;;;;;;;;5043255;28;20248;-74
2022/07/18 04:57:49;;;;;;;8.00;5.70;;;;;;;;;;5049337;28;20205;-74
2022/07/18 05:00:16;;;;;;;10.85;6.40;;;;;;;;;;5032430;28;20221;-74
2022/07/18 05:02:42;;;;;;;6.88;5.80;;;;;;;;;;5040735;28;20228;-74
2022/07/18 05:05:09;;;;;;;8.50;6.00;;;;;;;;;;5044679;28;20178;-74
2022/07/18 05:07:34;;;;;;;7.60;5.85;;;;;;;;;;5041545;28;20647;-74
2022/07/18 05:10:00;;;;;;;7.90;6.10;;;;;;;;;;5032007;28;20212;-74
2022/07/18 05:12:25;;;;;;;8.45;6.20;;;;;;;;;;5046730;28;20418;-74
2022/07/18 05:14:50;;;;;;;7.07;6.22;;;;;;;;;;5048745;28;20181;-74
2022/07/18 05:17:15;;;;;;;8.93;5.70;;;;;;;;;;5046874;28;20217;-74
2022/07/18 05:19:41;;;;;;;6.10;5.50;;;;;;;;;;5051032;28;20209;-74
2022/07/18 05:22:06;;;;;;;7.30;5.67;;;;;;;;;;5044446;28;20210;-74
2022/07/18 05:24:31;;;;;;;10.83;6.17;;;;;;;;;;5045195;28;20423;-74
2022/07/18 05:26:56;;;;;;;8.90;5.20;;;;;;;;;;5048136;28;20947;-74
2022/07/18 05:29:21;;;;;;;8.20;5.70;;;;;;;;;;5030814;28;20245;-74
2022/07/18 05:31:46;;;;;;;7.35;5.82;;;;;;;;;;5037440;28;20506;-75
2022/07/18 05:34:12;;;;;;;9.82;6.82;;;;;;;;;;5046101;28;20170;-74
2022/07/18 05:36:37;;;;;;;7.70;5.63;;;;;;;;;;5047502;28;20201;-75
2022/07/18 05:39:02;;;;;;;10.20;6.10;;;;;;;;;;5042082;28;20212;-74
2022/07/18 05:41:28;;;;;;;8.18;6.03;;;;;;;;;;5041248;28;20193;-74
2022/07/18 05:43:53;;;;;;;12.18;6.93;;;;;;;;;;5028855;28;20174;-75
2022/07/18 05:46:18;;;;;;;11.15;5.88;;;;;;;;;;5042925;28;20665;-74
2022/07/18 05:48:43;;;;;;;16.02;6.97;;;;;;;;;;5047221;28;20209;-75
2022/07/18 05:51:09;;;;;;;16.73;6.78;;;;;;;;;;5047784;28;20166;-74
2022/07/18 05:53:34;;;;;;;10.02;5.78;;;;;;;;;;5051513;28;20631;-74
2022/07/18 05:55:59;;;;;;;10.60;6.63;;;;;;;;;;5052585;28;20181;-74
2022/07/18 05:58:24;;;;;;;9.77;6.57;;;;;;;;;;5047852;28;20971;-74
2022/07/18 06:00:49;;;;;;;8.95;6.45;;;;;;;;;;5041337;28;20269;-74
2022/07/18 06:03:15;;;;;;;10.90;6.77;;;;;;;;;;5043524;28;20194;-74
2022/07/18 06:05:40;;;;;;;13.10;5.70;;;;;;;;;;5048588;28;20434;-74
2022/07/18 06:08:05;;;;;;;9.75;6.15;;;;;;;;;;5052103;28;20213;-74
2022/07/18 06:10:30;;;;;;;11.90;6.20;;;;;;;;;;5051794;28;20197;-74
2022/07/18 06:12:56;;;;;;;8.88;6.15;;;;;;;;;;5051759;28;20196;-74
2022/07/18 06:15:21;;;;;;;10.52;6.63;;;;;;;;;;5034243;28;20178;-74
2022/07/18 06:17:46;;;;;;;10.02;6.03;;;;;;;;;;5049759;28;20177;-74
2022/07/18 06:20:12;;;;;;;13.10;7.05;;;;;;;;;;5047660;28;20197;-74
2022/07/18 06:22:37;;;;;;;6.70;5.90;;;;;;;;;;5041441;28;20735;-74
2022/07/18 06:25:03;;;;;;;11.73;5.90;;;;;;;;;;5047694;28;20184;-73
2022/07/18 06:27:28;;;;;;;7.60;6.15;;;;;;;;;;5051327;28;20484;-73
2022/07/18 06:29:53;;;;;;;8.68;5.72;;;;;;;;;;5034580;28;20744;-74
2022/07/18 06:32:18;;;;;;;11.57;6.05;;;;;;;;;;5027879;28;20166;-74
2022/07/18 06:34:43;;;;;;;8.82;5.40;;;;;;;;;;5049682;28;20556;-74
2022/07/18 06:37:09;;;;;;;9.20;5.13;;;;;;;;;;5052402;28;20628;-73
2022/07/18 06:39:34;;;;;;;10.20;5.35;;;;;;;;;;5023457;28;20205;-73
2022/07/18 06:41:59;;;;;;;7.97;4.93;;;;;;;;;;5046696;28;20201;-72
2022/07/18 06:44:24;;;;;;;8.80;4.15;;;;;;;;;;5052410;28;20856;-72
2022/07/18 06:46:51;;;;;;;13.05;5.68;;;;;;;;;;5047612;28;20326;-71
2022/07/18 06:49:17;;;;;;;13.93;5.43;;;;;;;;;;5052406;28;20201;-72
2022/07/18 06:51:42;;;;;;;7.90;4.78;;;;;;;;;;5047852;28;20178;-72
2022/07/18 06:54:08;;;;;;;8.73;4.50;;;;;;;;;;5053700;28;20505;-72
2022/07/18 06:56:33;;;;;;;8.20;4.77;;;;;;;;;;5049341;28;20453;-72
2022/07/18 06:58:58;;;;;;;9.30;5.13;;;;;;;;;;5050805;28;20474;-72
2022/07/18 07:01:24;;;;;;;5.75;4.13;;;;;;;;;;5037107;28;20500;-72
2022/07/18 07:03:49;;;;;;;10.52;4.70;;;;;;;;;;5030828;28;20265;-72
2022/07/18 07:06:15;;;;;;;6.18;4.63;;;;;;;;;;5035802;28;20624;-72
2022/07/18 07:08:41;;;;;;;7.15;4.70;;;;;;;;;;5021652;28;20276;-72
2022/07/18 07:11:06;;;;;;;6.50;4.55;;;;;;;;;;5045626;28;20247;-72
2022/07/18 07:13:31;;;;;;;7.35;4.20;;;;;;;;;;5050512;28;20173;-72
2022/07/18 07:15:56;;;;;;;7.37;4.60;;;;;;;;;;5051614;28;20312;-72
2022/07/18 07:18:21;;;;;;;8.33;5.10;;;;;;;;;;5051755;28;20445;-72
2022/07/18 07:20:47;;;;;;;9.13;5.67;;;;;;;;;;5049422;28;20430;-72
2022/07/18 07:23:12;;;;;;;8.80;4.75;;;;;;;;;;5052550;28;20920;-72
2022/07/18 07:25:37;;;;;;;7.63;4.50;;;;;;;;;;5051142;28;20643;-72
2022/07/18 07:28:03;;;;;;;6.45;4.53;;;;;;;;;;5035531;28;20561;-72
2022/07/18 07:30:28;;;;;;;8.80;4.63;;;;;;;;;;5052723;28;20288;-72
2022/07/18 07:32:53;;;;;;;9.25;5.60;;;;;;;;;;5046196;28;20175;-72
2022/07/18 07:35:20;;;;;;;9.13;5.90;;;;;;;;;;5048090;28;20181;-72
2022/07/18 07:37:46;;;;;;;6.65;4.95;;;;;;;;;;5047407;28;20216;-71
2022/07/18 07:40:12;;;;;;;8.50;5.03;;;;;;;;;;5049732;28;20211;-72
2022/07/18 07:42:37;;;;;;;8.35;5.35;;;;;;;;;;5052315;28;20186;-71
2022/07/18 07:45:03;;;;;;;7.30;5.33;;;;;;;;;;5019069;28;20185;-71
2022/07/18 07:47:31;;;;;;;12.15;5.45;;;;;;;;;;5041656;28;20491;-74
2022/07/18 07:49:57;;;;;;;7.13;5.18;;;;;;;;;;5049082;28;20707;-71
2022/07/18 07:52:23;;;;;;;9.38;6.32;;;;;;;;;;5050602;28;20231;-71
2022/07/18 07:54:49;;;;;;;7.15;4.97;;;;;;;;;;5051914;28;20249;-71
2022/07/18 07:57:14;;;;;;;8.80;6.55;;;;;;;;;;5047126;28;20249;-72
2022/07/18 07:59:39;;;;;;;10.33;5.73;;;;;;;;;;5051754;28;20208;-72
2022/07/18 08:02:04;;;;;;;10.53;6.27;;;;;;;;;;5047322;28;20415;-71
2022/07/18 08:04:30;;;;;;;8.53;5.90;;;;;;;;;;5048492;28;20260;-71
2022/07/18 08:06:55;;;;;;;6.25;4.90;;;;;;;;;;5047659;28;20938;-71
2022/07/18 08:09:20;;;;;;;9.45;6.97;;;;;;;;;;5051699;28;20201;-72
2022/07/18 08:11:45;;;;;;;10.83;5.60;;;;;;;;;;5047535;28;20710;-71
2022/07/18 08:14:10;;;;;;;8.67;5.60;;;;;;;;;;5051490;28;20982;-71
2022/07/18 08:16:36;;;;;;;8.27;5.43;;;;;;;;;;5048598;28;20911;-71
2022/07/18 08:19:01;;;;;;;6.85;5.65;;;;;;;;;;5044439;28;20525;-71
2022/07/18 08:21:26;;;;;;;8.50;5.20;;;;;;;;;;5043067;28;20178;-71
2022/07/18 08:23:51;;;;;;;7.00;5.17;;;;;;;;;;5020078;28;20442;-72
2022/07/18 08:26:16;;;;;;;6.70;5.23;;;;;;;;;;5018225;28;20305;-71
2022/07/18 08:28:42;;;;;;;8.82;5.07;;;;;;;;;;5048972;28;20446;-71
2022/07/18 08:31:07;;;;;;;12.55;5.15;;;;;;;;;;5034340;28;20556;-71
2022/07/18 08:33:32;;;;;;;10.97;4.77;;;;;;;;;;5045385;28;20177;-70
2022/07/18 08:35:57;;;;;;;7.67;6.30;;;;;;;;;;5048135;28;21344;-70
2022/07/18 08:38:22;;;;;;;9.05;4.95;;;;;;;;;;5048888;28;20434;-70
2022/07/18 08:40:48;;;;;;;7.17;5.00;;;;;;;;;;5047663;28;20182;-70
2022/07/18 08:43:14;;;;;;;7.53;4.78;;;;;;;;;;5051233;28;20571;-70
2022/07/18 08:45:41;;;;;;;6.82;4.78;;;;;;;;;;5047692;28;20204;-70
2022/07/18 08:48:07;;;;;;;6.80;5.10;;;;;;;;;;5047409;28;20188;-70
2022/07/18 08:50:32;;;;;;;7.32;4.50;;;;;;;;;;5047824;28;20201;-70
2022/07/18 08:52:58;;;;;;;5.88;4.30;;;;;;;;;;5049287;28;20242;-70
2022/07/18 08:55:24;;;;;;;7.00;4.22;;;;;;;;;;5046739;28;20181;-70
2022/07/18 08:57:49;;;;;;;5.53;4.03;;;;;;;;;;5047967;28;20176;-70
2022/07/18 09:00:16;;;;;;;8.13;5.13;;;;;;;;;;5048769;28;20472;-71
2022/07/18 09:02:41;;;;;;;6.97;4.15;;;;;;;;;;5032431;28;20650;-70
2022/07/18 09:05:17;;;;;;;8.38;5.07;;;;;;;;;;5029279;28;20188;-70
2022/07/18 09:07:42;;;;;;;8.52;4.60;;;;;;;;;;5020452;28;20182;-71
2022/07/18 09:10:07;;;;;;;6.77;3.90;;;;;;;;;;5040828;28;20258;-70
2022/07/18 09:12:33;;;;;;;7.43;4.38;;;;;;;;;;5020596;28;20272;-70
2022/07/18 09:15:05;;;;;;;5.97;4.68;;;;;;;;;;5024982;28;20177;-71
2022/07/18 09:17:32;;;;;;;9.50;4.07;;;;;;;;;;5018659;28;20189;-71
2022/07/18 09:20:08;;;;;;;5.45;4.10;;;;;;;;;;5020368;28;20698;-71
2022/07/18 09:22:38;;;;;;;7.50;4.57;;;;;;;;;;5022763;28;20185;-71
2022/07/18 09:25:05;;;;;;;7.45;5.07;;;;;;;;;;5018214;28;20177;-70
2022/07/18 09:27:34;;;;;;;4.80;4.30;;;;;;;;;;5023329;28;20173;-70
2022/07/18 09:30:05;;;;;;;8.35;4.05;;;;;;;;;;5027213;28;20212;-70
2022/07/18 09:32:30;;;;;;;8.20;3.80;;;;;;;;;;5025097;28;20231;-70
2022/07/18 09:34:56;;;;;;;5.40;3.33;;;;;;;;;;5043847;28;20189;-70
2022/07/18 09:37:21;;;;;;;4.47;3.70;;;;;;;;;;5024589;28;20176;-70
2022/07/18 09:39:46;;;;;;;8.17;4.83;;;;;;;;;;5023663;28;20244;-71
2022/07/18 09:42:18;;;;;;;10.33;4.93;;;;;;;;;;5025113;28;20509;-70
2022/07/18 09:44:56;;;;;;;6.20;3.50;;;;;;;;;;5026824;28;20191;-70
2022/07/18 09:47:21;;;;;;;5.47;3.70;;;;;;;;;;5024424;28;20574;-70
2022/07/18 09:49:46;;;;;;;12.50;4.77;;;;;;;;;;5024133;28;20216;-70
2022/07/18 09:52:11;;;;;;;4.70;2.90;;;;;;;;;;5025113;28;20176;-70
2022/07/18 09:54:36;;;;;;;6.30;4.00;;;;;;;;;;5027433;28;20181;-70
2022/07/18 09:57:02;;;;;;;11.23;4.55;;;;;;;;;;5024796;28;20418;-70
2022/07/18 09:59:27;;;;;;;7.33;3.87;;;;;;;;;;5023979;28;20213;-70
2022/07/18 10:01:52;;;;;;;4.00;2.43;;;;;;;;;;5026014;28;20188;-71
2022/07/18 10:04:17;;;;;;;5.20;3.30;;;;;;;;;;5007457;28;20445;-71
2022/07/18 10:06:44;;;;;;;4.63;2.83;;;;;;;;;;5023298;28;20238;-71
2022/07/18 10:09:09;;;;;;;6.57;3.45;;;;;;;;;;5023879;28;20211;-71
2022/07/18 10:11:34;;;;;;;6.07;3.40;;;;;;;;;;5030799;28;20190;-71
2022/07/18 10:14:00;;;;;;;4.67;2.30;;;;;;;;;;5030203;28;20425;-71
2022/07/18 10:16:25;;;;;;;4.53;2.50;;;;;;;;;;5023552;28;20191;-71
2022/07/18 10:18:50;;;;;;;6.60;2.67;;;;;;;;;;5024330;28;20460;-71
2022/07/18 10:21:19;;;;;;;4.57;2.87;;;;;;;;;;5028353;28;20196;-71
2022/07/18 10:23:46;;;;;;;4.63;2.63;;;;;;;;;;5025620;28;20178;-71
2022/07/18 10:26:18;;;;;;;6.22;2.30;;;;;;;;;;5023139;28;20185;-71
2022/07/18 10:28:55;;;;;;;8.98;3.00;;;;;;;;;;5023972;28;20208;-71
2022/07/18 10:31:21;;;;;;;4.72;3.15;;;;;;;;;;5047287;28;20666;-71
2022/07/18 10:33:48;;;;;;;5.53;2.53;;;;;;;;;;5050225;28;20662;-71
2022/07/18 10:36:15;;;;;;;2.97;2.40;;;;;;;;;;5050420;28;20173;-71
2022/07/18 10:38:58;;;;;;;3.13;2.15;;;;;;;;;;5046588;28;20219;-71
2022/07/18 10:41:23;;;;;;;4.47;2.15;;;;;;;;;;5046403;28;20670;-71
2022/07/18 10:43:49;;;;;;;5.67;2.43;;;;;;;;;;5052584;28;20215;-71
2022/07/18 10:46:14;;;;;;;4.50;2.10;;;;;;;;;;5051090;28;20260;-71
2022/07/18 10:48:40;;;;;;;3.88;2.72;;;;;;;;;;5050303;28;20255;-70
2022/07/18 10:51:09;;;;;;;7.35;2.20;;;;;;;;;;5047053;28;20169;-70
2022/07/18 10:53:52;;;;;;;2.78;2.45;;;;;;;;;;5048955;28;20173;-70
2022/07/18 10:56:18;;;;;;;5.47;1.70;;;;;;;;;;5051436;28;20200;-70
2022/07/18 10:58:43;;;;;;;6.00;2.45;;;;;;;;;;5051464;28;20225;-70
2022/07/18 11:01:12;;;;;;;3.42;2.38;;;;;;;;;;5051673;28;20551;-70
2022/07/18 11:03:37;;;;;;;3.38;2.10;;;;;;;;;;5028119;28;20192;-70
2022/07/18 11:06:03;;;;;;;4.00;2.17;;;;;;;;;;5023244;28;20904;-70
2022/07/18 11:08:31;;;;;;;4.07;1.83;;;;;;;;;;5026250;28;20445;-70
2022/07/18 11:11:03;;;;;;;5.88;2.13;;;;;;;;;;5027789;28;20746;-70
2022/07/18 11:13:33;;;;;;;3.30;2.00;;;;;;;;;;5028026;28;20181;-70
2022/07/18 11:16:08;;;;;;;4.15;2.47;;;;;;;;;;5022702;28;20188;-70
2022/07/18 11:18:33;;;;;;;3.42;2.15;;;;;;;;;;5022430;28;20875;-70
2022/07/18 11:20:59;;;;;;;5.97;1.80;;;;;;;;;;5025317;28;20323;-70
2022/07/18 11:23:25;;;;;;;3.97;1.73;;;;;;;;;;5026505;28;20188;-70
2022/07/18 11:25:54;;;;;;;3.80;1.52;;;;;;;;;;5020421;28;21102;-70
2022/07/18 11:28:19;;;;;;;3.58;1.92;;;;;;;;;;5019482;28;20200;-71
2022/07/18 11:30:45;;;;;;;5.53;1.58;;;;;;;;;;5022104;28;20216;-71
2022/07/18 11:33:21;;;;;;;3.47;1.95;;;;;;;;;;5024219;28;20570;-70
2022/07/18 11:35:46;;;;;;;2.78;1.40;;;;;;;;;;5023270;28;21867;-70
2022/07/18 11:38:12;;;;;;;8.70;1.95;;;;;;;;;;5023092;28;20191;-70
2022/07/18 11:40:46;;;;;;;3.73;1.73;;;;;;;;;;5022201;28;20247;-71
2022/07/18 11:43:18;;;;;;;8.93;2.08;;;;;;;;;;5024406;28;20184;-70
2022/07/18 11:45:44;;;;;;;3.42;1.55;;;;;;;;;;5023008;28;20189;-71
2022/07/18 11:48:09;;;;;;;3.30;1.80;;;;;;;;;;5003981;28;20177;-70
2022/07/18 11:50:35;;;;;;;5.50;1.87;;;;;;;;;;5019479;28;20205;-70
2022/07/18 11:53:01;;;;;;;4.18;1.90;;;;;;;;;;5024700;28;20181;-70
2022/07/18 11:55:33;;;;;;;5.57;2.00;;;;;;;;;;5022488;28;20218;-70
2022/07/18 11:58:13;;;;;;;3.70;1.58;;;;;;;;;;5020547;28;20185;-70
2022/07/18 12:00:38;;;;;;;2.53;1.50;;;;;;;;;;5022501;28;20276;-70
2022/07/18 12:03:24;;;;;;;4.05;2.03;;;;;;;;;;5020907;28;20181;-70
2022/07/18 12:05:51;;;;;;;6.13;1.60;;;;;;;;;;5021640;28;20189;-70
2022/07/18 12:08:25;;;;;;;6.90;1.73;;;;;;;;;;5023118;28;21016;-70
2022/07/18 12:11:06;;;;;;;7.15;2.13;;;;;;;;;;5006665;28;20617;-70
2022/07/18 12:13:41;;;;;;;4.60;1.90;;;;;;;;;;5024326;28;20288;-71
2022/07/18 12:16:06;;;;;;;6.55;1.90;;;;;;;;;;5021218;28;20588;-71
2022/07/18 12:18:32;;;;;;;3.30;1.42;;;;;;;;;;5028302;28;20262;-70
2022/07/18 12:21:08;;;;;;;4.32;2.03;;;;;;;;;;5022061;28;20220;-71
2022/07/18 12:23:33;;;;;;;4.07;1.77;;;;;;;;;;5023044;28;20188;-70
2022/07/18 12:25:59;;;;;;;2.83;1.97;;;;;;;;;;5022515;28;20173;-70
2022/07/18 12:28:25;;;;;;;4.45;1.88;;;;;;;;;;5025525;28;20660;-70
2022/07/18 12:30:51;;;;;;;5.45;2.38;;;;;;;;;;5045385;28;20719;-70
2022/07/18 12:33:16;;;;;;;2.67;1.80;;;;;;;;;;5050802;28;20211;-70
2022/07/18 12:35:42;;;;;;;5.03;2.10;;;;;;;;;;5048557;28;20256;-70
2022/07/18 12:38:07;;;;;;;4.28;1.60;;;;;;;;;;5049046;28;20434;-70
2022/07/18 12:40:41;;;;;;;4.90;2.00;;;;;;;;;;5045528;28;20184;-70
2022/07/18 12:43:09;;;;;;;6.20;2.03;;;;;;;;;;5049458;28;20188;-70
2022/07/18 12:45:34;;;;;;;5.43;2.33;;;;;;;;;;5049501;28;20267;-71
2022/07/18 12:48:00;;;;;;;2.58;1.85;;;;;;;;;;5051129;28;20650;-70
2022/07/18 12:50:25;;;;;;;3.08;1.95;;;;;;;;;;5047559;28;20240;-70
2022/07/18 12:52:50;;;;;;;3.27;1.90;;;;;;;;;;5051383;28;20646;-70
2022/07/18 12:55:17;;;;;;;2.25;2.00;;;;;;;;;;5049244;28;20183;-70
2022/07/18 12:57:42;;;;;;;5.55;2.10;;;;;;;;;;5049295;28;20173;-70
2022/07/18 13:00:08;;;;;;;3.53;1.60;;;;;;;;;;5048305;28;20212;-70
2022/07/18 13:02:33;;;;;;;3.83;1.67;;;;;;;;;;5022772;28;20177;-70
2022/07/18 13:04:58;;;;;;;2.90;1.93;;;;;;;;;;5021872;28;20178;-70
2022/07/18 13:07:23;;;;;;;9.03;2.03;;;;;;;;;;5021534;28;20181;-71
2022/07/18 13:09:49;;;;;;;3.67;2.20;;;;;;;;;;5021194;28;20583;-70
2022/07/18 13:12:14;;;;;;;5.17;2.43;;;;;;;;;;5021207;28;20418;-70
2022/07/18 13:14:39;;;;;;;2.60;2.15;;;;;;;;;;5029350;28;20430;-70
2022/07/18 13:17:04;;;;;;;4.27;2.37;;;;;;;;;;5021459;28;20277;-70
2022/07/18 13:19:30;;;;;;;3.50;2.27;;;;;;;;;;5019274;28;20309;-71
2022/07/18 13:21:57;;;;;;;3.30;2.27;;;;;;;;;;5026811;28;20189;-70
2022/07/18 13:24:22;;;;;;;4.05;2.40;;;;;;;;;;5021032;28;20549;-70
2022/07/18 13:26:47;;;;;;;3.40;2.37;;;;;;;;;;5022554;28;20177;-70
2022/07/18 13:29:12;;;;;;;2.67;2.10;;;;;;;;;;5021927;28;20883;-70
2022/07/18 13:31:38;;;;;;;4.70;1.93;;;;;;;;;;5023064;28;20216;-70
2022/07/18 13:34:03;;;;;;;4.30;2.57;;;;;;;;;;5021407;28;20196;-70
2022/07/18 13:36:29;;;;;;;2.42;2.10;;;;;;;;;;5020575;28;20177;-70
2022/07/18 13:38:55;;;;;;;5.40;2.00;;;;;;;;;;5020897;28;20216;-70
2022/07/18 13:41:20;;;;;;;2.58;2.05;;;;;;;;;;5021725;28;20382;-70
2022/07/18 13:43:46;;;;;;;2.33;2.03;;;;;;;;;;5023179;28;20181;-70
2022/07/18 13:46:11;;;;;;;4.20;2.20;;;;;;;;;;5020393;28;20212;-71
2022/07/18 13:48:37;;;;;;;3.30;1.70;;;;;;;;;;5021359;28;20247;-70
2022/07/18 13:51:03;;;;;;;2.30;2.10;;;;;;;;;;5019189;28;20687;-70
2022/07/18 13:53:28;;;;;;;3.92;1.75;;;;;;;;;;5020397;28;20288;-70
2022/07/18 13:55:53;;;;;;;4.57;1.93;;;;;;;;;;5021023;28;20907;-71
2022/07/18 13:58:18;;;;;;;2.57;1.30;;;;;;;;;;5019232;28;20981;-70
2022/07/18 14:00:44;;;;;;;3.50;2.07;;;;;;;;;;5019971;28;20178;-70
2022/07/18 14:03:09;;;;;;;5.50;2.15;;;;;;;;;;5020928;28;20916;-70
2022/07/18 14:05:34;;;;;;;3.42;1.85;;;;;;;;;;5037134;28;20177;-71
2022/07/18 14:08:00;;;;;;;2.80;1.60;;;;;;;;;;5049786;28;20180;-70
2022/07/18 14:10:25;;;;;;;2.75;1.70;;;;;;;;;;5049447;28;20215;-70
2022/07/18 14:12:50;;;;;;;3.30;1.90;;;;;;;;;;5046983;28;20248;-70
2022/07/18 14:15:16;;;;;;;3.03;1.77;;;;;;;;;;5050454;28;20565;-70
2022/07/18 14:17:41;;;;;;;3.40;1.60;;;;;;;;;;5051510;28;20525;-70
2022/07/18 14:20:07;;;;;;;4.85;1.73;;;;;;;;;;5042922;28;20492;-70
2022/07/18 14:22:33;;;;;;;4.38;1.92;;;;;;;;;;5026530;28;20236;-70
2022/07/18 14:24:58;;;;;;;3.72;2.17;;;;;;;;;;5025817;28;20177;-70
2022/07/18 14:27:23;;;;;;;6.50;2.23;;;;;;;;;;5024429;28;20200;-70
2022/07/18 14:29:48;;;;;;;2.50;1.80;;;;;;;;;;5045110;28;20621;-70
2022/07/18 14:32:14;;;;;;;5.00;2.10;;;;;;;;;;5053476;28;20655;-70
2022/07/18 14:34:39;;;;;;;3.37;2.20;;;;;;;;;;5053276;28;20179;-70
2022/07/18 14:37:04;;;;;;;6.27;2.17;;;;;;;;;;5050568;28;20510;-69